Luba, Equatorial Guinea
Current Conditions -  °F | °C
As of 1:00 PM on Saturday 20 Dec 2014 (Local Time) from FKKD Reporting Station
Haze Haze  
Wind Chill: 90°   Ceiling: 1600
Heat Index: 102°   Visibility: 3mi
Dew Point: 77°   Wind: 5mph
Humidity: 66%   Direction: 220°SW
Pressure: 29.85"   Gusts: NA
Location:  3.46°N, 8.55°E
Report Text: FKKD 201200Z 22004KT 5000 HZ BKN016 FEW020CB 32/25 Q1011 NOSIG
Loading
Personal Weather Stations






























Interactive Weather Map New forecast layout! Learn more

10-Day Weather Forecast

Advertisements
Track Severe Weather on mobile